Coonabarabran Airport
YCBB : now visible

Airfield :











YOU CAN JOIN US ON...

 
LOGIN :

Register | Disclaimer

   EN    FR    IT 

 









Legend :    VFR   Marginal VFR   IFR   Intensive IFR   Very Intensive IFR
Visi :
Ceiling :
>= 8 km
>= 3000ft
5 to 8 km
1000 to 3000 ft
1500m to 5 km
500 to 1000 ft
800 to 1500m
200 to 500 ft
< 800m
< 200 ft
Symbols :   Thunderstorms  Fog  Heavy snow  Heavy precipitations  Wind > 20 kt






- Airport Elevation : 2117 ft
- IATA code : COJ


YCBB - Coonabarabran

CURRENT METAR :
  • 162130Z AUTO 18007KT 0150 FG OVC001 04/04 Q1019

EXPIRED METARs :
  • 162100Z AUTO 19008KT 0150 FG OVC001 04/04 Q1019
  • 162030Z AUTO 19007KT 0500 FG OVC002 04/04 Q1018
  • 162000Z AUTO 21008KT 0350 FG OVC002 05/05 Q1018
  • 161930Z AUTO 21007KT 0150 FG OVC001 05/05 Q1018
  • 161900Z AUTO 21008KT 0100 FG OVC001 05/05 Q1017

TAF N/A
YBBB FIR / Oceania



MET'MAP, your aeronautical weather chart ! - Copyright ORBIFLY December 2007 - Disclaimer

ORBIFLY MET'MAP TEAM :

Programming & Development : Alexandra Zaïnal
Original concept : Baudouin d'Aumeries
Technical & hardware support : Manuel Goepfert
Assistance : Marc-Olivier Méhu




SOURCES & CREDITS :

   NOAA       Earth
Advisory